< < Back
Terminal Aerodrome Forecast


Current Version              Previous Versions:   1  2  3  4  5  6  7  8  9  

Terminal Aerodrome Forecast

040
FTUS42 KFFC 231944 AAA
TAFFTY
TAF AMD
KFTY 231944Z 2320/2418 10010G18KT 4SM -SHRA BR OVC007
      TEMPO 2320/2323 1SM SHRA BR OVC005
     FM232300 15008G16KT 4SM -SHRA BR OVC006
     FM240300 19006KT 3SM BR OVC004
     FM241500 24008KT P6SM BKN015 OVC030=

Latest METAR

556
SAUS70 KWBC 240100
MTRFTY
METAR KFTY 240053Z 20010KT 10SM SCT036 17/14 A2969 RMK AO2 SLP049
T01670139


USA.gov is the U.S. government's official web portal to all federal, state and local government web resources and services.